sensor_id;sensor_type;location;lat;lon;timestamp;temperature;humidity
52973;DHT22;38837;48.916;2.336;2023-07-29T00:01:48;24.10;67.20
52973;DHT22;38837;48.916;2.336;2023-07-29T00:03:51;24.00;67.10
52973;DHT22;38837;48.916;2.336;2023-07-29T00:05:53;24.00;67.00
52973;DHT22;38837;48.916;2.336;2023-07-29T00:07:55;24.00;67.10
52973;DHT22;38837;48.916;2.336;2023-07-29T00:09:57;24.00;67.10
52973;DHT22;38837;48.916;2.336;2023-07-29T00:12:00;24.00;67.20
52973;DHT22;38837;48.916;2.336;2023-07-29T00:14:02;24.00;67.20
52973;DHT22;38837;48.916;2.336;2023-07-29T00:16:04;24.00;67.20
52973;DHT22;38837;48.916;2.336;2023-07-29T00:18:06;24.00;67.20
52973;DHT22;38837;48.916;2.336;2023-07-29T00:20:08;24.00;67.30
52973;DHT22;38837;48.916;2.336;2023-07-29T00:22:10;24.00;67.30
52973;DHT22;38837;48.916;2.336;2023-07-29T00:24:12;24.00;67.30
52973;DHT22;38837;48.916;2.336;2023-07-29T00:26:14;24.00;67.20
52973;DHT22;38837;48.916;2.336;2023-07-29T00:28:16;24.00;67.20
52973;DHT22;38837;48.916;2.336;2023-07-29T00:30:18;24.00;67.70
52973;DHT22;38837;48.916;2.336;2023-07-29T00:32:20;24.00;67.10
52973;DHT22;38837;48.916;2.336;2023-07-29T00:34:22;23.90;67.10
52973;DHT22;38837;48.916;2.336;2023-07-29T00:36:24;24.00;67.00
52973;DHT22;38837;48.916;2.336;2023-07-29T00:38:25;23.90;67.10
52973;DHT22;38837;48.916;2.336;2023-07-29T00:40:28;23.90;67.10
52973;DHT22;38837;48.916;2.336;2023-07-29T00:42:31;23.90;67.10
52973;DHT22;38837;48.916;2.336;2023-07-29T00:44:33;23.90;67.10
52973;DHT22;38837;48.916;2.336;2023-07-29T00:46:36;23.90;67.10
52973;DHT22;38837;48.916;2.336;2023-07-29T00:48:40;23.90;67.10
52973;DHT22;38837;48.916;2.336;2023-07-29T00:50:42;23.90;67.10
52973;DHT22;38837;48.916;2.336;2023-07-29T00:52:44;23.90;67.20
52973;DHT22;38837;48.916;2.336;2023-07-29T00:54:46;23.90;67.10
52973;DHT22;38837;48.916;2.336;2023-07-29T00:56:48;23.90;67.10
52973;DHT22;38837;48.916;2.336;2023-07-29T00:58:50;23.90;67.10
52973;DHT22;38837;48.916;2.336;2023-07-29T01:00:54;23.80;67.10
52973;DHT22;38837;48.916;2.336;2023-07-29T01:02:56;23.80;67.10
52973;DHT22;38837;48.916;2.336;2023-07-29T01:04:58;23.80;67.20
52973;DHT22;38837;48.916;2.336;2023-07-29T01:07:21;23.80;67.20
52973;DHT22;38837;48.916;2.336;2023-07-29T01:14:26;23.70;67.20
52973;DHT22;38837;48.916;2.336;2023-07-29T01:16:51;23.70;67.00
52973;DHT22;38837;48.916;2.336;2023-07-29T01:18:55;23.70;67.10
52973;DHT22;38837;48.916;2.336;2023-07-29T01:21:00;23.70;67.10
52973;DHT22;38837;48.916;2.336;2023-07-29T01:23:04;23.70;66.90
52973;DHT22;38837;48.916;2.336;2023-07-29T01:25:06;23.60;67.00
52973;DHT22;38837;48.916;2.336;2023-07-29T01:27:08;23.70;67.10
52973;DHT22;38837;48.916;2.336;2023-07-29T01:29:10;23.60;66.90
52973;DHT22;38837;48.916;2.336;2023-07-29T01:31:31;23.60;66.90
52973;DHT22;38837;48.916;2.336;2023-07-29T01:33:39;23.60;67.00
52973;DHT22;38837;48.916;2.336;2023-07-29T01:35:48;23.60;66.90
52973;DHT22;38837;48.916;2.336;2023-07-29T01:37:55;23.60;67.00
52973;DHT22;38837;48.916;2.336;2023-07-29T01:40:01;23.60;66.90
52973;DHT22;38837;48.916;2.336;2023-07-29T01:42:03;23.60;67.50
52973;DHT22;38837;48.916;2.336;2023-07-29T01:44:06;23.60;66.80
52973;DHT22;38837;48.916;2.336;2023-07-29T01:46:11;23.60;66.80
52973;DHT22;38837;48.916;2.336;2023-07-29T01:48:14;23.60;66.80
52973;DHT22;38837;48.916;2.336;2023-07-29T01:50:15;23.60;66.80
52973;DHT22;38837;48.916;2.336;2023-07-29T01:52:17;23.50;66.60
52973;DHT22;38837;48.916;2.336;2023-07-29T01:54:19;23.60;66.70
52973;DHT22;38837;48.916;2.336;2023-07-29T01:56:21;23.60;66.80
52973;DHT22;38837;48.916;2.336;2023-07-29T01:58:24;23.60;66.70
52973;DHT22;38837;48.916;2.336;2023-07-29T02:00:26;23.60;66.60
52973;DHT22;38837;48.916;2.336;2023-07-29T02:02:28;23.50;66.70
52973;DHT22;38837;48.916;2.336;2023-07-29T02:04:30;23.60;66.70
52973;DHT22;38837;48.916;2.336;2023-07-29T02:06:32;23.60;66.60
52973;DHT22;38837;48.916;2.336;2023-07-29T02:08:35;23.50;66.70
52973;DHT22;38837;48.916;2.336;2023-07-29T02:10:37;23.50;66.60
52973;DHT22;38837;48.916;2.336;2023-07-29T02:12:39;23.50;66.60
52973;DHT22;38837;48.916;2.336;2023-07-29T02:14:40;23.50;66.60
52973;DHT22;38837;48.916;2.336;2023-07-29T02:16:42;23.50;66.60
52973;DHT22;38837;48.916;2.336;2023-07-29T02:18:44;23.50;66.60
52973;DHT22;38837;48.916;2.336;2023-07-29T02:20:46;23.50;66.50
52973;DHT22;38837;48.916;2.336;2023-07-29T02:22:51;23.50;66.60
52973;DHT22;38837;48.916;2.336;2023-07-29T02:24:53;23.40;66.50
52973;DHT22;38837;48.916;2.336;2023-07-29T02:26:55;23.50;66.60
52973;DHT22;38837;48.916;2.336;2023-07-29T02:28:57;23.40;66.60
52973;DHT22;38837;48.916;2.336;2023-07-29T02:31:19;23.40;66.50
52973;DHT22;38837;48.916;2.336;2023-07-29T02:33:22;23.50;66.60
52973;DHT22;38837;48.916;2.336;2023-07-29T02:35:23;23.40;66.40
52973;DHT22;38837;48.916;2.336;2023-07-29T02:37:25;23.50;66.50
52973;DHT22;38837;48.916;2.336;2023-07-29T02:39:27;23.40;66.30
52973;DHT22;38837;48.916;2.336;2023-07-29T02:41:29;23.50;66.50
52973;DHT22;38837;48.916;2.336;2023-07-29T02:43:31;23.40;66.30
52973;DHT22;38837;48.916;2.336;2023-07-29T02:45:33;23.50;66.40
52973;DHT22;38837;48.916;2.336;2023-07-29T02:47:37;23.40;66.40
52973;DHT22;38837;48.916;2.336;2023-07-29T02:49:38;23.40;66.30
52973;DHT22;38837;48.916;2.336;2023-07-29T02:51:40;23.40;66.40
52973;DHT22;38837;48.916;2.336;2023-07-29T02:53:42;23.40;66.30
52973;DHT22;38837;48.916;2.336;2023-07-29T02:55:44;23.40;66.20
52973;DHT22;38837;48.916;2.336;2023-07-29T02:57:46;23.40;66.20
52973;DHT22;38837;48.916;2.336;2023-07-29T02:59:48;23.40;66.20
52973;DHT22;38837;48.916;2.336;2023-07-29T03:01:49;23.40;66.20
52973;DHT22;38837;48.916;2.336;2023-07-29T03:03:51;23.40;66.20
52973;DHT22;38837;48.916;2.336;2023-07-29T03:06:01;23.40;66.20
52973;DHT22;38837;48.916;2.336;2023-07-29T03:08:03;23.30;66.30
52973;DHT22;38837;48.916;2.336;2023-07-29T03:10:06;23.40;66.20
52973;DHT22;38837;48.916;2.336;2023-07-29T03:12:08;23.30;66.00
52973;DHT22;38837;48.916;2.336;2023-07-29T03:14:10;23.30;66.20
52973;DHT22;38837;48.916;2.336;2023-07-29T03:16:16;23.30;66.10
52973;DHT22;38837;48.916;2.336;2023-07-29T03:18:18;23.30;66.10
52973;DHT22;38837;48.916;2.336;2023-07-29T03:20:20;23.30;66.10
52973;DHT22;38837;48.916;2.336;2023-07-29T03:22:22;23.30;65.90
52973;DHT22;38837;48.916;2.336;2023-07-29T03:24:24;23.30;65.90
52973;DHT22;38837;48.916;2.336;2023-07-29T03:26:26;23.30;66.00
52973;DHT22;38837;48.916;2.336;2023-07-29T03:28:30;23.30;66.00
52973;DHT22;38837;48.916;2.336;2023-07-29T03:30:32;23.30;66.00
52973;DHT22;38837;48.916;2.336;2023-07-29T03:32:33;23.30;66.00
52973;DHT22;38837;48.916;2.336;2023-07-29T03:34:35;23.20;65.90
52973;DHT22;38837;48.916;2.336;2023-07-29T03:36:37;23.30;66.00
52973;DHT22;38837;48.916;2.336;2023-07-29T03:38:39;23.30;65.90
52973;DHT22;38837;48.916;2.336;2023-07-29T03:40:43;23.20;65.80
52973;DHT22;38837;48.916;2.336;2023-07-29T03:42:44;23.30;65.90
52973;DHT22;38837;48.916;2.336;2023-07-29T03:44:46;23.30;65.90
52973;DHT22;38837;48.916;2.336;2023-07-29T03:46:48;23.20;65.90
52973;DHT22;38837;48.916;2.336;2023-07-29T03:48:50;23.20;65.80
52973;DHT22;38837;48.916;2.336;2023-07-29T03:50:52;23.20;65.90
52973;DHT22;38837;48.916;2.336;2023-07-29T03:52:54;23.20;65.80
52973;DHT22;38837;48.916;2.336;2023-07-29T03:54:56;23.20;65.90
52973;DHT22;38837;48.916;2.336;2023-07-29T03:56:58;23.20;65.80
52973;DHT22;38837;48.916;2.336;2023-07-29T03:59:04;23.20;65.80
52973;DHT22;38837;48.916;2.336;2023-07-29T04:01:06;23.20;65.70
52973;DHT22;38837;48.916;2.336;2023-07-29T04:03:08;23.20;65.70
52973;DHT22;38837;48.916;2.336;2023-07-29T04:05:10;23.10;65.80
52973;DHT22;38837;48.916;2.336;2023-07-29T04:07:12;23.20;65.80
52973;DHT22;38837;48.916;2.336;2023-07-29T04:09:14;23.20;65.90
52973;DHT22;38837;48.916;2.336;2023-07-29T04:11:16;23.20;65.70
52973;DHT22;38837;48.916;2.336;2023-07-29T04:13:18;23.20;65.80
52973;DHT22;38837;48.916;2.336;2023-07-29T04:15:20;23.20;65.70
52973;DHT22;38837;48.916;2.336;2023-07-29T04:17:22;23.10;65.70
52973;DHT22;38837;48.916;2.336;2023-07-29T04:19:24;23.10;65.70
52973;DHT22;38837;48.916;2.336;2023-07-29T04:21:26;23.10;65.80
52973;DHT22;38837;48.916;2.336;2023-07-29T04:23:28;23.10;65.50
52973;DHT22;38837;48.916;2.336;2023-07-29T04:25:30;23.10;65.70
52973;DHT22;38837;48.916;2.336;2023-07-29T04:27:31;23.10;65.70
52973;DHT22;38837;48.916;2.336;2023-07-29T04:29:33;23.10;65.70
52973;DHT22;38837;48.916;2.336;2023-07-29T04:31:37;23.10;65.70
52973;DHT22;38837;48.916;2.336;2023-07-29T04:33:39;23.10;65.70
52973;DHT22;38837;48.916;2.336;2023-07-29T04:35:41;23.10;65.60
52973;DHT22;38837;48.916;2.336;2023-07-29T04:37:43;23.10;65.70
52973;DHT22;38837;48.916;2.336;2023-07-29T04:39:45;23.10;65.50
52973;DHT22;38837;48.916;2.336;2023-07-29T04:41:48;23.10;65.50
52973;DHT22;38837;48.916;2.336;2023-07-29T04:43:50;23.10;65.20
52973;DHT22;38837;48.916;2.336;2023-07-29T04:45:52;23.10;65.30
52973;DHT22;38837;48.916;2.336;2023-07-29T04:47:54;23.00;65.40
52973;DHT22;38837;48.916;2.336;2023-07-29T04:49:56;23.00;65.60
52973;DHT22;38837;48.916;2.336;2023-07-29T04:51:58;23.00;65.60
52973;DHT22;38837;48.916;2.336;2023-07-29T04:54:00;23.00;65.70
52973;DHT22;38837;48.916;2.336;2023-07-29T04:56:02;23.00;65.50
52973;DHT22;38837;48.916;2.336;2023-07-29T04:58:04;23.00;65.60
52973;DHT22;38837;48.916;2.336;2023-07-29T05:00:07;23.00;65.70
52973;DHT22;38837;48.916;2.336;2023-07-29T05:02:08;23.00;65.60
52973;DHT22;38837;48.916;2.336;2023-07-29T05:04:11;23.00;65.50
52973;DHT22;38837;48.916;2.336;2023-07-29T05:06:12;23.00;65.50
52973;DHT22;38837;48.916;2.336;2023-07-29T05:08:14;23.00;66.00
52973;DHT22;38837;48.916;2.336;2023-07-29T05:10:16;23.00;65.50
52973;DHT22;38837;48.916;2.336;2023-07-29T05:12:18;23.00;65.40
52973;DHT22;38837;48.916;2.336;2023-07-29T05:14:20;23.00;65.40
52973;DHT22;38837;48.916;2.336;2023-07-29T05:16:22;23.00;65.30
52973;DHT22;38837;48.916;2.336;2023-07-29T05:18:24;23.00;65.50
52973;DHT22;38837;48.916;2.336;2023-07-29T05:20:26;23.00;65.50
52973;DHT22;38837;48.916;2.336;2023-07-29T05:22:27;23.00;65.40
52973;DHT22;38837;48.916;2.336;2023-07-29T05:24:29;23.00;65.40
52973;DHT22;38837;48.916;2.336;2023-07-29T05:26:31;23.00;66.00
52973;DHT22;38837;48.916;2.336;2023-07-29T05:28:33;23.00;65.40
52973;DHT22;38837;48.916;2.336;2023-07-29T05:30:35;23.00;65.40
52973;DHT22;38837;48.916;2.336;2023-07-29T05:32:39;22.90;65.40
52973;DHT22;38837;48.916;2.336;2023-07-29T05:34:41;22.90;65.30
52973;DHT22;38837;48.916;2.336;2023-07-29T05:36:43;23.00;65.40
52973;DHT22;38837;48.916;2.336;2023-07-29T05:38:44;22.90;65.30
52973;DHT22;38837;48.916;2.336;2023-07-29T05:40:48;22.90;65.30
52973;DHT22;38837;48.916;2.336;2023-07-29T05:42:50;22.90;65.30
52973;DHT22;38837;48.916;2.336;2023-07-29T05:44:52;22.90;65.30
52973;DHT22;38837;48.916;2.336;2023-07-29T05:46:54;22.90;65.30
52973;DHT22;38837;48.916;2.336;2023-07-29T05:48:56;22.90;65.30
52973;DHT22;38837;48.916;2.336;2023-07-29T05:50:58;22.90;65.30
52973;DHT22;38837;48.916;2.336;2023-07-29T05:52:59;22.90;65.30
52973;DHT22;38837;48.916;2.336;2023-07-29T05:55:01;22.80;65.30
52973;DHT22;38837;48.916;2.336;2023-07-29T05:57:03;22.90;65.30
52973;DHT22;38837;48.916;2.336;2023-07-29T05:59:05;22.80;65.10
52973;DHT22;38837;48.916;2.336;2023-07-29T06:01:07;22.90;65.10
52973;DHT22;38837;48.916;2.336;2023-07-29T06:03:09;22.80;65.80
52973;DHT22;38837;48.916;2.336;2023-07-29T06:05:11;22.80;65.10
52973;DHT22;38837;48.916;2.336;2023-07-29T06:07:13;22.80;65.20
52973;DHT22;38837;48.916;2.336;2023-07-29T06:09:15;22.80;65.30
52973;DHT22;38837;48.916;2.336;2023-07-29T06:11:17;22.80;65.30
52973;DHT22;38837;48.916;2.336;2023-07-29T06:13:19;22.80;65.40
52973;DHT22;38837;48.916;2.336;2023-07-29T06:15:21;22.80;65.10
52973;DHT22;38837;48.916;2.336;2023-07-29T06:17:24;22.80;65.30
52973;DHT22;38837;48.916;2.336;2023-07-29T06:19:26;22.80;65.20
52973;DHT22;38837;48.916;2.336;2023-07-29T06:21:28;22.80;65.20
52973;DHT22;38837;48.916;2.336;2023-07-29T06:23:30;22.80;65.20
52973;DHT22;38837;48.916;2.336;2023-07-29T06:25:32;22.80;65.20
52973;DHT22;38837;48.916;2.336;2023-07-29T06:27:34;22.80;65.20
52973;DHT22;38837;48.916;2.336;2023-07-29T06:29:36;22.90;65.20
52973;DHT22;38837;48.916;2.336;2023-07-29T06:31:37;22.90;65.10
52973;DHT22;38837;48.916;2.336;2023-07-29T06:33:39;22.90;64.90
52973;DHT22;38837;48.916;2.336;2023-07-29T06:35:41;22.80;65.00
52973;DHT22;38837;48.916;2.336;2023-07-29T06:37:43;22.80;65.10
52973;DHT22;38837;48.916;2.336;2023-07-29T06:39:45;22.80;65.10
52973;DHT22;38837;48.916;2.336;2023-07-29T06:41:47;22.80;64.90
52973;DHT22;38837;48.916;2.336;2023-07-29T06:43:49;22.80;65.00
52973;DHT22;38837;48.916;2.336;2023-07-29T06:45:54;22.80;65.00
52973;DHT22;38837;48.916;2.336;2023-07-29T06:47:57;22.90;65.10
52973;DHT22;38837;48.916;2.336;2023-07-29T06:49:59;22.90;65.00
52973;DHT22;38837;48.916;2.336;2023-07-29T06:52:01;22.90;65.00
52973;DHT22;38837;48.916;2.336;2023-07-29T06:54:03;22.80;65.00
52973;DHT22;38837;48.916;2.336;2023-07-29T06:56:05;22.80;64.90
52973;DHT22;38837;48.916;2.336;2023-07-29T06:58:07;22.80;64.90
52973;DHT22;38837;48.916;2.336;2023-07-29T07:00:09;22.80;64.80
52973;DHT22;38837;48.916;2.336;2023-07-29T07:02:11;22.80;64.80
52973;DHT22;38837;48.916;2.336;2023-07-29T07:04:13;22.80;64.70
52973;DHT22;38837;48.916;2.336;2023-07-29T07:06:15;22.80;64.80
52973;DHT22;38837;48.916;2.336;2023-07-29T07:08:17;22.80;64.80
52973;DHT22;38837;48.916;2.336;2023-07-29T07:10:19;22.80;65.00
52973;DHT22;38837;48.916;2.336;2023-07-29T07:12:20;22.80;64.80
52973;DHT22;38837;48.916;2.336;2023-07-29T07:14:22;22.80;64.80
52973;DHT22;38837;48.916;2.336;2023-07-29T07:16:24;22.80;64.80
52973;DHT22;38837;48.916;2.336;2023-07-29T07:18:27;22.80;64.80
52973;DHT22;38837;48.916;2.336;2023-07-29T07:20:29;22.80;64.80
52973;DHT22;38837;48.916;2.336;2023-07-29T07:22:31;22.80;64.80
52973;DHT22;38837;48.916;2.336;2023-07-29T07:24:32;22.80;64.60
52973;DHT22;38837;48.916;2.336;2023-07-29T07:26:34;22.80;64.80
52973;DHT22;38837;48.916;2.336;2023-07-29T07:28:37;22.80;64.70
52973;DHT22;38837;48.916;2.336;2023-07-29T07:30:41;22.80;64.60
52973;DHT22;38837;48.916;2.336;2023-07-29T07:32:43;22.80;64.70
52973;DHT22;38837;48.916;2.336;2023-07-29T07:34:46;22.80;64.70
52973;DHT22;38837;48.916;2.336;2023-07-29T07:36:49;22.70;64.70
52973;DHT22;38837;48.916;2.336;2023-07-29T07:38:51;22.80;64.70
52973;DHT22;38837;48.916;2.336;2023-07-29T07:40:55;22.80;64.70
52973;DHT22;38837;48.916;2.336;2023-07-29T07:42:58;22.80;64.70
52973;DHT22;38837;48.916;2.336;2023-07-29T07:45:00;22.70;64.60
52973;DHT22;38837;48.916;2.336;2023-07-29T07:47:02;22.70;64.70
52973;DHT22;38837;48.916;2.336;2023-07-29T07:49:05;22.70;64.60
52973;DHT22;38837;48.916;2.336;2023-07-29T07:51:11;22.70;64.70
52973;DHT22;38837;48.916;2.336;2023-07-29T07:53:13;22.80;64.70
52973;DHT22;38837;48.916;2.336;2023-07-29T07:55:15;22.80;64.80
52973;DHT22;38837;48.916;2.336;2023-07-29T07:57:17;22.80;64.70
52973;DHT22;38837;48.916;2.336;2023-07-29T07:59:19;22.80;64.60
52973;DHT22;38837;48.916;2.336;2023-07-29T08:01:21;22.80;64.70
52973;DHT22;38837;48.916;2.336;2023-07-29T08:03:23;22.80;64.60
52973;DHT22;38837;48.916;2.336;2023-07-29T08:05:25;22.80;64.60
52973;DHT22;38837;48.916;2.336;2023-07-29T08:07:27;22.80;64.60
52973;DHT22;38837;48.916;2.336;2023-07-29T08:09:29;22.80;64.60
52973;DHT22;38837;48.916;2.336;2023-07-29T08:11:30;22.80;64.70
52973;DHT22;38837;48.916;2.336;2023-07-29T08:13:32;22.80;64.60
52973;DHT22;38837;48.916;2.336;2023-07-29T08:15:34;22.80;64.60
52973;DHT22;38837;48.916;2.336;2023-07-29T08:17:36;22.80;64.60
52973;DHT22;38837;48.916;2.336;2023-07-29T08:19:38;22.80;64.60
52973;DHT22;38837;48.916;2.336;2023-07-29T08:21:40;22.90;64.60
52973;DHT22;38837;48.916;2.336;2023-07-29T08:23:42;22.90;64.50
52973;DHT22;38837;48.916;2.336;2023-07-29T08:25:44;22.90;64.60
52973;DHT22;38837;48.916;2.336;2023-07-29T08:27:46;22.90;64.50
52973;DHT22;38837;48.916;2.336;2023-07-29T08:29:47;22.90;64.60
52973;DHT22;38837;48.916;2.336;2023-07-29T08:31:49;22.90;64.50
52973;DHT22;38837;48.916;2.336;2023-07-29T08:33:53;22.90;64.50
52973;DHT22;38837;48.916;2.336;2023-07-29T08:35:55;22.90;64.40
52973;DHT22;38837;48.916;2.336;2023-07-29T08:37:57;22.90;64.40
52973;DHT22;38837;48.916;2.336;2023-07-29T08:39:58;22.90;64.40
52973;DHT22;38837;48.916;2.336;2023-07-29T08:42:04;22.90;64.40
52973;DHT22;38837;48.916;2.336;2023-07-29T08:44:22;22.90;65.00
52973;DHT22;38837;48.916;2.336;2023-07-29T08:46:28;22.90;64.40
52973;DHT22;38837;48.916;2.336;2023-07-29T08:48:40;22.90;64.40
52973;DHT22;38837;48.916;2.336;2023-07-29T08:50:42;22.90;64.40
52973;DHT22;38837;48.916;2.336;2023-07-29T08:52:46;22.90;64.40
52973;DHT22;38837;48.916;2.336;2023-07-29T08:54:48;22.90;64.30
52973;DHT22;38837;48.916;2.336;2023-07-29T08:56:50;23.00;64.30
52973;DHT22;38837;48.916;2.336;2023-07-29T08:58:52;23.00;64.30
52973;DHT22;38837;48.916;2.336;2023-07-29T09:00:54;23.00;64.10
52973;DHT22;38837;48.916;2.336;2023-07-29T09:02:56;23.00;64.30
52973;DHT22;38837;48.916;2.336;2023-07-29T09:05:04;23.00;64.30
52973;DHT22;38837;48.916;2.336;2023-07-29T09:07:07;23.00;64.30
52973;DHT22;38837;48.916;2.336;2023-07-29T09:09:09;23.00;64.20
52973;DHT22;38837;48.916;2.336;2023-07-29T09:11:14;23.10;64.30
52973;DHT22;38837;48.916;2.336;2023-07-29T09:13:16;23.10;64.20
52973;DHT22;38837;48.916;2.336;2023-07-29T09:15:28;23.10;64.20
52973;DHT22;38837;48.916;2.336;2023-07-29T09:17:33;23.10;64.20
52973;DHT22;38837;48.916;2.336;2023-07-29T09:19:35;23.10;64.10
52973;DHT22;38837;48.916;2.336;2023-07-29T09:21:40;23.20;64.20
52973;DHT22;38837;48.916;2.336;2023-07-29T09:23:44;23.20;64.20
52973;DHT22;38837;48.916;2.336;2023-07-29T09:25:46;23.20;63.90
52973;DHT22;38837;48.916;2.336;2023-07-29T09:27:49;23.20;64.30
52973;DHT22;38837;48.916;2.336;2023-07-29T09:29:52;23.20;64.10
52973;DHT22;38837;48.916;2.336;2023-07-29T09:32:17;23.20;64.10
52973;DHT22;38837;48.916;2.336;2023-07-29T09:34:19;23.20;64.20
52973;DHT22;38837;48.916;2.336;2023-07-29T09:36:21;23.20;64.10
52973;DHT22;38837;48.916;2.336;2023-07-29T09:38:27;23.20;64.30
52973;DHT22;38837;48.916;2.336;2023-07-29T09:40:40;23.20;64.00
52973;DHT22;38837;48.916;2.336;2023-07-29T09:42:48;23.20;63.90
52973;DHT22;38837;48.916;2.336;2023-07-29T09:44:51;23.10;64.00
52973;DHT22;38837;48.916;2.336;2023-07-29T09:46:53;23.20;64.00
52973;DHT22;38837;48.916;2.336;2023-07-29T09:48:56;23.20;64.00
52973;DHT22;38837;48.916;2.336;2023-07-29T09:50:58;23.20;64.00
52973;DHT22;38837;48.916;2.336;2023-07-29T09:53:01;23.20;64.40
52973;DHT22;38837;48.916;2.336;2023-07-29T09:55:04;23.10;64.20
52973;DHT22;38837;48.916;2.336;2023-07-29T09:57:07;23.10;64.40
52973;DHT22;38837;48.916;2.336;2023-07-29T09:59:10;23.10;64.20
52973;DHT22;38837;48.916;2.336;2023-07-29T10:01:13;23.20;64.70
52973;DHT22;38837;48.916;2.336;2023-07-29T10:03:15;23.20;64.60
52973;DHT22;38837;48.916;2.336;2023-07-29T10:05:18;23.20;64.80
52973;DHT22;38837;48.916;2.336;2023-07-29T10:07:20;23.20;64.70
52973;DHT22;38837;48.916;2.336;2023-07-29T10:09:23;23.20;64.40
52973;DHT22;38837;48.916;2.336;2023-07-29T10:11:25;23.30;64.60
52973;DHT22;38837;48.916;2.336;2023-07-29T10:13:27;23.30;64.30
52973;DHT22;38837;48.916;2.336;2023-07-29T10:15:31;23.30;64.40
52973;DHT22;38837;48.916;2.336;2023-07-29T10:17:35;23.20;64.70
52973;DHT22;38837;48.916;2.336;2023-07-29T10:19:38;23.20;64.90
52973;DHT22;38837;48.916;2.336;2023-07-29T10:21:44;23.30;65.50
52973;DHT22;38837;48.916;2.336;2023-07-29T10:23:48;23.30;65.00
52973;DHT22;38837;48.916;2.336;2023-07-29T10:26:05;23.40;65.10
52973;DHT22;38837;48.916;2.336;2023-07-29T10:28:08;23.30;64.80
52973;DHT22;38837;48.916;2.336;2023-07-29T10:30:13;23.30;64.80
52973;DHT22;38837;48.916;2.336;2023-07-29T10:32:15;23.30;64.80
52973;DHT22;38837;48.916;2.336;2023-07-29T10:34:17;23.30;65.10
52973;DHT22;38837;48.916;2.336;2023-07-29T10:36:20;23.30;64.90
52973;DHT22;38837;48.916;2.336;2023-07-29T10:38:24;23.30;64.80
52973;DHT22;38837;48.916;2.336;2023-07-29T10:40:26;23.30;64.90
52973;DHT22;38837;48.916;2.336;2023-07-29T10:42:28;23.40;64.60
52973;DHT22;38837;48.916;2.336;2023-07-29T10:46:41;23.40;64.20
52973;DHT22;38837;48.916;2.336;2023-07-29T10:53:29;23.40;64.10
52973;DHT22;38837;48.916;2.336;2023-07-29T10:55:34;23.40;64.10
52973;DHT22;38837;48.916;2.336;2023-07-29T10:57:39;23.40;64.30
52973;DHT22;38837;48.916;2.336;2023-07-29T10:59:56;23.40;64.20
52973;DHT22;38837;48.916;2.336;2023-07-29T11:01:59;23.30;64.60
52973;DHT22;38837;48.916;2.336;2023-07-29T11:06:32;23.30;64.80
52973;DHT22;38837;48.916;2.336;2023-07-29T11:08:34;23.30;65.20
52973;DHT22;38837;48.916;2.336;2023-07-29T11:10:43;23.30;65.10
52973;DHT22;38837;48.916;2.336;2023-07-29T11:12:47;23.40;64.80
52973;DHT22;38837;48.916;2.336;2023-07-29T11:14:49;23.40;65.10
52973;DHT22;38837;48.916;2.336;2023-07-29T11:16:52;23.30;65.00
52973;DHT22;38837;48.916;2.336;2023-07-29T11:18:55;23.40;65.30
52973;DHT22;38837;48.916;2.336;2023-07-29T11:20:58;23.40;65.00
52973;DHT22;38837;48.916;2.336;2023-07-29T11:23:03;23.50;64.70
52973;DHT22;38837;48.916;2.336;2023-07-29T11:25:07;23.60;64.90
52973;DHT22;38837;48.916;2.336;2023-07-29T11:27:12;23.50;64.80
52973;DHT22;38837;48.916;2.336;2023-07-29T11:29:16;23.60;64.70
52973;DHT22;38837;48.916;2.336;2023-07-29T11:31:17;23.60;65.10
52973;DHT22;38837;48.916;2.336;2023-07-29T11:33:24;23.70;65.00
52973;DHT22;38837;48.916;2.336;2023-07-29T11:35:26;23.70;64.70
52973;DHT22;38837;48.916;2.336;2023-07-29T11:37:28;23.80;64.40
52973;DHT22;38837;48.916;2.336;2023-07-29T11:39:30;23.90;64.30
52973;DHT22;38837;48.916;2.336;2023-07-29T11:41:33;24.00;64.10
52973;DHT22;38837;48.916;2.336;2023-07-29T11:43:36;24.10;63.90
52973;DHT22;38837;48.916;2.336;2023-07-29T11:45:40;24.10;63.70
52973;DHT22;38837;48.916;2.336;2023-07-29T11:47:52;24.10;63.60
52973;DHT22;38837;48.916;2.336;2023-07-29T11:49:58;24.20;63.50
52973;DHT22;38837;48.916;2.336;2023-07-29T11:52:03;24.20;63.30
52973;DHT22;38837;48.916;2.336;2023-07-29T11:54:05;24.20;63.20
52973;DHT22;38837;48.916;2.336;2023-07-29T11:56:07;24.20;63.20
52973;DHT22;38837;48.916;2.336;2023-07-29T11:58:09;24.20;63.10
52973;DHT22;38837;48.916;2.336;2023-07-29T12:00:12;24.30;63.10
52973;DHT22;38837;48.916;2.336;2023-07-29T12:02:19;24.30;63.10
52973;DHT22;38837;48.916;2.336;2023-07-29T12:04:21;24.30;63.10
52973;DHT22;38837;48.916;2.336;2023-07-29T12:06:23;24.40;63.10
52973;DHT22;38837;48.916;2.336;2023-07-29T12:08:26;24.40;63.10
52973;DHT22;38837;48.916;2.336;2023-07-29T12:10:29;24.40;63.00
52973;DHT22;38837;48.916;2.336;2023-07-29T12:12:31;24.40;62.80
52973;DHT22;38837;48.916;2.336;2023-07-29T12:14:34;24.50;62.80
52973;DHT22;38837;48.916;2.336;2023-07-29T12:16:47;24.40;62.50
52973;DHT22;38837;48.916;2.336;2023-07-29T12:18:50;24.40;62.60
52973;DHT22;38837;48.916;2.336;2023-07-29T12:20:52;24.30;62.60
52973;DHT22;38837;48.916;2.336;2023-07-29T12:22:58;24.20;62.80
52973;DHT22;38837;48.916;2.336;2023-07-29T12:25:01;24.30;63.00
52973;DHT22;38837;48.916;2.336;2023-07-29T12:27:04;24.30;63.00
52973;DHT22;38837;48.916;2.336;2023-07-29T12:29:17;24.30;63.20
52973;DHT22;38837;48.916;2.336;2023-07-29T12:31:21;24.20;63.70
52973;DHT22;38837;48.916;2.336;2023-07-29T12:33:36;24.20;63.70
52973;DHT22;38837;48.916;2.336;2023-07-29T12:35:45;24.20;63.20
52973;DHT22;38837;48.916;2.336;2023-07-29T12:37:47;24.20;63.50
52973;DHT22;38837;48.916;2.336;2023-07-29T12:39:59;24.20;63.20
52973;DHT22;38837;48.916;2.336;2023-07-29T12:42:02;24.20;63.70
52973;DHT22;38837;48.916;2.336;2023-07-29T12:44:04;24.20;64.00
52973;DHT22;38837;48.916;2.336;2023-07-29T12:46:06;24.20;64.20
52973;DHT22;38837;48.916;2.336;2023-07-29T12:48:08;24.30;63.80
52973;DHT22;38837;48.916;2.336;2023-07-29T12:50:11;24.30;63.60
52973;DHT22;38837;48.916;2.336;2023-07-29T12:52:13;24.30;64.00
52973;DHT22;38837;48.916;2.336;2023-07-29T12:54:14;24.30;64.00
52973;DHT22;38837;48.916;2.336;2023-07-29T12:56:16;24.40;63.90
52973;DHT22;38837;48.916;2.336;2023-07-29T12:58:18;24.40;63.80
52973;DHT22;38837;48.916;2.336;2023-07-29T13:00:20;24.40;64.20
52973;DHT22;38837;48.916;2.336;2023-07-29T13:02:22;24.50;64.50
52973;DHT22;38837;48.916;2.336;2023-07-29T13:04:24;24.50;64.30
52973;DHT22;38837;48.916;2.336;2023-07-29T13:06:25;24.50;64.00
52973;DHT22;38837;48.916;2.336;2023-07-29T13:08:30;24.60;64.10
52973;DHT22;38837;48.916;2.336;2023-07-29T13:10:31;24.60;64.00
52973;DHT22;38837;48.916;2.336;2023-07-29T13:12:33;24.70;64.40